Time;durP1;ratioP1;P1;durP2;ratioP2;P2;SDS_P1;SDS_P2;PMS_P1;PMS_P2;Temp;Humidity;BMP_temperature;BMP_pressure;BME280_temperature;BME280_humidity;BME280_pressure;Samples;Min_cycle;Max_cycle;Signal;HPM_P1;HPM_P2
2022/10/18 00:01:45;;;;;;;;;;;21.70;99.90;;;;;;5038031;28;19925;-78
2022/10/18 00:04:12;;;;;;;;;;;21.70;99.90;;;;;;5038418;28;20020;-78
2022/10/18 00:06:39;;;;;;;;;;;21.70;99.90;;;;;;5036491;28;19976;-78
2022/10/18 00:09:07;;;;;;;;;;;21.70;99.90;;;;;;5035909;28;20008;-78
2022/10/18 00:11:34;;;;;;;;;;;21.70;99.90;;;;;;5037710;28;19925;-78
2022/10/18 00:14:00;;;;;;;;;;;21.70;99.90;;;;;;5037238;28;20388;-78
2022/10/18 00:16:27;;;;;;;;;;;21.70;99.90;;;;;;5036825;28;20016;-78
2022/10/18 00:18:54;;;;;;;;;;;21.70;99.90;;;;;;5037095;28;19926;-78
2022/10/18 00:21:21;;;;;;;;;;;21.70;99.90;;;;;;5037760;28;19957;-79
2022/10/18 00:23:49;;;;;;;;;;;21.70;99.90;;;;;;5038700;28;19997;-78
2022/10/18 00:26:17;;;;;;;;;;;21.70;99.90;;;;;;5038554;28;20019;-78
2022/10/18 00:28:44;;;;;;;;;;;21.70;99.90;;;;;;5036918;28;19979;-78
2022/10/18 00:31:12;;;;;;;;;;;21.70;99.90;;;;;;5035329;28;20008;-78
2022/10/18 00:33:39;;;;;;;;;;;21.70;99.90;;;;;;5039229;28;19972;-78
2022/10/18 00:36:06;;;;;;;;;;;21.70;99.90;;;;;;5037665;28;20376;-78
2022/10/18 00:38:33;;;;;;;;;;;21.70;99.90;;;;;;5036728;28;20012;-78
2022/10/18 00:41:00;;;;;;;;;;;21.70;99.90;;;;;;5034891;28;20011;-78
2022/10/18 00:43:28;;;;;;;;;;;21.70;99.90;;;;;;5035324;28;20003;-78
2022/10/18 00:45:54;;;;;;;;;;;21.70;99.90;;;;;;5036302;28;20346;-78
2022/10/18 00:48:21;;;;;;;;;;;21.70;99.90;;;;;;5035811;28;19925;-78
2022/10/18 00:50:50;;;;;;;;;;;21.70;99.90;;;;;;5035466;28;20015;-78
2022/10/18 00:53:18;;;;;;;;;;;21.70;99.90;;;;;;5034695;28;20019;-77
2022/10/18 00:55:45;;;;;;;;;;;21.70;99.90;;;;;;5034542;28;20053;-77
2022/10/18 00:58:13;;;;;;;;;;;21.70;99.90;;;;;;5034600;28;20019;-77
2022/10/18 01:00:41;;;;;;;;;;;21.70;99.90;;;;;;5034634;28;19964;-77
2022/10/18 01:03:08;;;;;;;;;;;21.70;99.90;;;;;;5034566;28;19991;-77
2022/10/18 01:05:37;;;;;;;;;;;21.70;99.90;;;;;;5034197;28;20012;-78
2022/10/18 01:08:09;;;;;;;;;;;21.70;99.90;;;;;;5034503;28;20023;-78
2022/10/18 01:10:39;;;;;;;;;;;21.70;99.90;;;;;;5034284;28;20019;-78
2022/10/18 01:13:11;;;;;;;;;;;21.70;99.90;;;;;;5034172;28;19964;-78
2022/10/18 01:15:41;;;;;;;;;;;21.70;99.90;;;;;;5034658;28;19926;-78
2022/10/18 01:18:20;;;;;;;;;;;21.70;99.90;;;;;;5035083;28;19971;-78
2022/10/18 01:21:05;;;;;;;;;;;21.70;99.90;;;;;;5034796;28;20019;-78
2022/10/18 01:23:52;;;;;;;;;;;21.70;99.90;;;;;;5034372;28;19956;-78
2022/10/18 01:26:29;;;;;;;;;;;21.70;99.90;;;;;;5034323;28;19983;-78
2022/10/18 01:28:59;;;;;;;;;;;21.60;99.90;;;;;;5034313;28;20357;-78
2022/10/18 01:31:30;;;;;;;;;;;21.60;99.90;;;;;;5034219;28;20015;-78
2022/10/18 01:33:57;;;;;;;;;;;21.60;99.90;;;;;;5036057;28;20008;-78
2022/10/18 01:36:28;;;;;;;;;;;21.70;99.90;;;;;;5036954;28;19925;-78
2022/10/18 01:38:57;;;;;;;;;;;21.70;99.90;;;;;;5035345;28;19964;-78
2022/10/18 01:41:24;;;;;;;;;;;21.70;99.90;;;;;;5034379;28;19925;-78
2022/10/18 01:43:52;;;;;;;;;;;21.60;99.90;;;;;;5034555;28;19972;-78
2022/10/18 01:46:21;;;;;;;;;;;21.60;99.90;;;;;;5036460;28;20345;-80
2022/10/18 01:48:49;;;;;;;;;;;21.70;99.90;;;;;;5039274;28;20016;-80
2022/10/18 01:51:18;;;;;;;;;;;21.70;99.90;;;;;;5040029;28;20325;-80
2022/10/18 01:53:45;;;;;;;;;;;21.70;99.90;;;;;;5038791;28;19925;-80
2022/10/18 01:56:25;;;;;;;;;;;21.60;99.90;;;;;;5038643;28;19964;-80
2022/10/18 01:58:57;;;;;;;;;;;21.60;99.90;;;;;;5039215;28;19964;-81
2022/10/18 02:01:28;;;;;;;;;;;21.70;99.90;;;;;;5038963;28;20019;-81
2022/10/18 02:04:03;;;;;;;;;;;21.60;99.90;;;;;;5039192;28;20347;-81
2022/10/18 02:06:31;;;;;;;;;;;21.70;99.90;;;;;;5038296;28;19960;-80
2022/10/18 02:09:00;;;;;;;;;;;21.70;99.90;;;;;;5039148;28;19972;-80
2022/10/18 02:11:29;;;;;;;;;;;21.60;99.90;;;;;;5038648;28;20005;-80
2022/10/18 02:13:57;;;;;;;;;;;21.70;99.90;;;;;;5038542;28;19972;-80
2022/10/18 02:16:26;;;;;;;;;;;21.60;99.90;;;;;;5038806;28;20112;-80
2022/10/18 02:18:55;;;;;;;;;;;21.70;99.90;;;;;;5039361;28;19959;-80
2022/10/18 02:21:25;;;;;;;;;;;21.60;99.90;;;;;;5038983;28;20062;-80
2022/10/18 02:23:52;;;;;;;;;;;21.70;99.90;;;;;;5038638;28;19973;-80
2022/10/18 02:26:19;;;;;;;;;;;21.60;99.90;;;;;;5039258;28;19954;-80
2022/10/18 02:28:45;;;;;;;;;;;21.70;99.90;;;;;;5038910;28;19932;-80
2022/10/18 02:31:15;;;;;;;;;;;21.70;99.90;;;;;;5040173;28;19957;-80
2022/10/18 02:33:45;;;;;;;;;;;21.60;99.90;;;;;;5044505;28;19956;-80
2022/10/18 02:36:15;;;;;;;;;;;21.60;99.90;;;;;;5040402;28;19971;-80
2022/10/18 02:38:44;;;;;;;;;;;21.70;99.90;;;;;;5038605;28;20023;-80
2022/10/18 02:41:11;;;;;;;;;;;21.60;99.90;;;;;;5039197;28;20024;-80
2022/10/18 02:43:38;;;;;;;;;;;21.60;99.90;;;;;;5038823;28;19972;-80
2022/10/18 02:46:05;;;;;;;;;;;21.60;99.90;;;;;;5038877;28;20020;-80
2022/10/18 02:48:32;;;;;;;;;;;21.60;99.90;;;;;;5039051;28;19968;-80
2022/10/18 02:50:58;;;;;;;;;;;21.60;99.90;;;;;;5038619;28;20023;-80
2022/10/18 02:53:25;;;;;;;;;;;21.60;99.90;;;;;;5038977;28;19960;-80
2022/10/18 02:55:53;;;;;;;;;;;21.60;99.90;;;;;;5051667;28;19953;-80
2022/10/18 02:58:20;;;;;;;;;;;21.60;99.90;;;;;;5059246;28;19925;-80
2022/10/18 03:00:49;;;;;;;;;;;21.60;99.90;;;;;;5058502;28;19925;-80
2022/10/18 03:03:15;;;;;;;;;;;21.60;99.90;;;;;;5045394;28;19932;-80
2022/10/18 03:05:42;;;;;;;;;;;21.60;99.90;;;;;;5042155;28;19964;-80
2022/10/18 03:08:09;;;;;;;;;;;21.60;99.90;;;;;;5041905;28;19963;-81
2022/10/18 03:10:35;;;;;;;;;;;21.60;99.90;;;;;;5041839;28;20019;-81
2022/10/18 03:13:03;;;;;;;;;;;21.60;99.90;;;;;;5041765;28;20008;-81
2022/10/18 03:15:30;;;;;;;;;;;21.60;99.90;;;;;;5042058;28;19948;-81
2022/10/18 03:17:57;;;;;;;;;;;21.60;99.90;;;;;;5041990;28;19996;-81
2022/10/18 03:20:23;;;;;;;;;;;21.60;99.90;;;;;;5040494;28;19988;-81
2022/10/18 03:22:50;;;;;;;;;;;21.60;99.90;;;;;;5041779;28;20022;-81
2022/10/18 03:25:17;;;;;;;;;;;21.60;99.90;;;;;;5041341;28;20004;-81
2022/10/18 03:27:43;;;;;;;;;;;21.60;99.90;;;;;;5049076;28;19933;-81
2022/10/18 03:30:12;;;;;;;;;;;21.60;99.90;;;;;;5047780;28;19971;-80
2022/10/18 03:32:39;;;;;;;;;;;21.60;99.90;;;;;;5055223;28;19925;-80
2022/10/18 03:35:06;;;;;;;;;;;21.60;99.90;;;;;;5056821;28;19925;-80
2022/10/18 03:37:33;;;;;;;;;;;21.60;99.90;;;;;;5056598;28;19948;-80
2022/10/18 03:40:00;;;;;;;;;;;21.60;99.90;;;;;;5056781;28;19925;-80
2022/10/18 03:42:26;;;;;;;;;;;21.60;99.90;;;;;;5056153;28;19925;-80
2022/10/18 03:44:53;;;;;;;;;;;21.60;99.90;;;;;;5056273;28;20300;-80
2022/10/18 03:47:21;;;;;;;;;;;21.60;99.90;;;;;;5043858;28;20389;-83
2022/10/18 03:49:48;;;;;;;;;;;21.60;99.90;;;;;;5042292;28;19971;-83
2022/10/18 03:52:14;;;;;;;;;;;21.60;99.90;;;;;;5044012;28;19976;-84
2022/10/18 03:54:41;;;;;;;;;;;21.60;99.90;;;;;;5040603;28;19965;-83
2022/10/18 03:57:08;;;;;;;;;;;21.60;99.90;;;;;;5038256;28;20024;-82
2022/10/18 03:59:34;;;;;;;;;;;21.60;99.90;;;;;;5038275;28;20423;-83
2022/10/18 04:02:01;;;;;;;;;;;21.60;99.90;;;;;;5038839;28;19976;-82
2022/10/18 04:04:29;;;;;;;;;;;21.60;99.90;;;;;;5039377;28;19979;-83
2022/10/18 04:06:56;;;;;;;;;;;21.60;99.90;;;;;;5039748;28;19975;-83
2022/10/18 04:09:22;;;;;;;;;;;21.60;99.90;;;;;;5038478;28;20066;-83
2022/10/18 04:11:49;;;;;;;;;;;21.60;99.90;;;;;;5042227;28;19933;-82
2022/10/18 04:14:16;;;;;;;;;;;21.60;99.90;;;;;;5038925;28;20452;-83
2022/10/18 04:16:43;;;;;;;;;;;21.60;99.90;;;;;;5038580;28;19960;-83
2022/10/18 04:19:09;;;;;;;;;;;21.60;99.90;;;;;;5036727;28;20025;-81
2022/10/18 04:21:37;;;;;;;;;;;21.60;99.90;;;;;;5036668;28;19964;-81
2022/10/18 04:24:05;;;;;;;;;;;21.60;99.90;;;;;;5037985;28;20016;-81
2022/10/18 04:26:31;;;;;;;;;;;21.60;99.90;;;;;;5037550;28;19965;-81
2022/10/18 04:28:58;;;;;;;;;;;21.60;99.90;;;;;;5037699;28;20339;-81
2022/10/18 04:31:25;;;;;;;;;;;21.60;99.90;;;;;;5038164;28;20016;-81
2022/10/18 04:33:51;;;;;;;;;;;21.60;99.90;;;;;;5036690;28;20389;-81
2022/10/18 04:36:18;;;;;;;;;;;21.60;99.90;;;;;;5037227;28;20329;-82
2022/10/18 04:38:46;;;;;;;;;;;21.60;99.90;;;;;;5039272;28;19960;-81
2022/10/18 04:41:13;;;;;;;;;;;21.60;99.90;;;;;;5037510;28;19956;-82
2022/10/18 04:43:39;;;;;;;;;;;21.70;99.90;;;;;;5038797;28;20389;-80
2022/10/18 04:46:06;;;;;;;;;;;21.70;99.90;;;;;;5039209;28;20424;-80
2022/10/18 04:48:33;;;;;;;;;;;21.60;99.90;;;;;;5038733;28;19953;-79
2022/10/18 04:50:59;;;;;;;;;;;21.70;99.90;;;;;;5036838;28;20019;-78
2022/10/18 04:53:26;;;;;;;;;;;21.70;99.90;;;;;;5036666;28;20031;-78
2022/10/18 04:55:54;;;;;;;;;;;21.70;99.90;;;;;;5036656;28;19967;-79
2022/10/18 04:58:21;;;;;;;;;;;21.70;99.90;;;;;;5037015;28;20023;-78
2022/10/18 05:00:47;;;;;;;;;;;21.60;99.90;;;;;;5036422;28;20015;-78
2022/10/18 05:03:14;;;;;;;;;;;21.60;99.90;;;;;;5035852;28;20463;-78
2022/10/18 13:08:37;;;;;;;;;;;21.80;99.90;;;;;;5660409;22;19925;-78
2022/10/18 13:11:22;;;;;;;;;;;21.80;99.90;;;;;;5039942;28;19929;-77
2022/10/18 13:13:54;;;;;;;;;;;21.80;99.90;;;;;;5041361;28;19925;-78
2022/10/18 13:16:25;;;;;;;;;;;21.80;99.90;;;;;;5040886;28;19980;-78
2022/10/18 13:18:53;;;;;;;;;;;21.80;99.90;;;;;;5039410;28;19979;-77
2022/10/18 13:21:23;;;;;;;;;;;21.80;99.90;;;;;;5039642;28;20415;-77
2022/10/18 13:24:01;;;;;;;;;;;21.80;99.90;;;;;;5039156;28;19972;-77
2022/10/18 13:26:34;;;;;;;;;;;21.80;99.90;;;;;;5038678;28;19925;-77
2022/10/18 13:29:05;;;;;;;;;;;21.80;99.90;;;;;;5038560;28;20288;-76
2022/10/18 13:31:37;;;;;;;;;;;21.80;99.90;;;;;;5038618;28;20434;-76
2022/10/18 13:34:17;;;;;;;;;;;21.80;99.90;;;;;;5038773;28;19929;-75
2022/10/18 13:36:44;;;;;;;;;;;21.80;99.90;;;;;;5038527;28;19964;-75
2022/10/18 13:39:20;;;;;;;;;;;21.80;99.90;;;;;;5038554;28;19926;-75
2022/10/18 13:42:08;;;;;;;;;;;21.80;99.90;;;;;;5038637;28;19925;-75
2022/10/18 13:44:36;;;;;;;;;;;21.80;99.90;;;;;;5013010;28;20417;-75
2022/10/18 13:47:12;;;;;;;;;;;21.80;99.90;;;;;;5039157;28;20035;-75
2022/10/18 13:49:57;;;;;;;;;;;21.80;99.90;;;;;;5039338;28;19972;-74
2022/10/18 13:52:28;;;;;;;;;;;21.80;99.90;;;;;;5028160;28;19925;-74
2022/10/18 13:55:04;;;;;;;;;;;21.80;99.90;;;;;;5039838;28;20012;-74
2022/10/18 13:57:41;;;;;;;;;;;21.80;99.90;;;;;;5038836;28;19968;-75
2022/10/18 14:00:24;;;;;;;;;;;21.70;99.90;;;;;;5039272;28;19926;-75
2022/10/18 14:03:01;;;;;;;;;;;21.80;99.90;;;;;;5034124;28;19983;-75
2022/10/18 14:05:43;;;;;;;;;;;21.80;99.90;;;;;;5034120;28;20036;-75
2022/10/18 14:08:12;;;;;;;;;;;21.80;99.90;;;;;;5036958;28;19956;-75
2022/10/18 14:10:44;;;;;;;;;;;21.70;99.90;;;;;;5036173;28;20274;-75
2022/10/18 14:13:16;;;;;;;;;;;21.80;99.90;;;;;;5036164;28;19932;-76
2022/10/18 14:15:43;;;;;;;;;;;21.80;99.90;;;;;;5036041;28;19933;-77
2022/10/18 14:18:13;;;;;;;;;;;21.80;99.90;;;;;;5035498;28;20019;-77
2022/10/18 14:20:42;;;;;;;;;;;21.70;99.90;;;;;;5036224;28;19925;-77
2022/10/18 14:23:12;;;;;;;;;;;21.70;99.90;;;;;;5033652;28;20039;-76
2022/10/18 14:25:39;;;;;;;;;;;21.70;99.90;;;;;;5033626;28;20382;-76
2022/10/18 14:28:10;;;;;;;;;;;21.80;99.90;;;;;;5033583;28;19928;-75
2022/10/18 14:30:37;;;;;;;;;;;21.80;99.90;;;;;;5033373;28;20024;-74
2022/10/18 14:33:04;;;;;;;;;;;21.70;99.90;;;;;;5033570;28;20028;-75
2022/10/18 14:35:34;;;;;;;;;;;21.80;99.90;;;;;;5033346;28;20020;-75
2022/10/18 14:38:01;;;;;;;;;;;21.70;99.90;;;;;;5033128;28;20270;-75
2022/10/18 14:40:33;;;;;;;;;;;21.70;99.90;;;;;;5033422;28;19934;-74
2022/10/18 14:43:01;;;;;;;;;;;21.80;99.90;;;;;;5033563;28;20020;-74
2022/10/18 14:45:30;;;;;;;;;;;21.80;99.90;;;;;;5033535;28;20028;-74
2022/10/18 14:48:04;;;;;;;;;;;21.70;99.90;;;;;;5033511;28;19929;-75
2022/10/18 14:50:31;;;;;;;;;;;21.70;99.90;;;;;;5034721;28;20036;-75
2022/10/18 14:53:03;;;;;;;;;;;21.80;99.90;;;;;;5037149;28;19975;-75
2022/10/18 14:55:31;;;;;;;;;;;21.70;99.90;;;;;;5037037;28;20015;-75
2022/10/18 14:57:58;;;;;;;;;;;21.70;99.90;;;;;;5036607;28;20454;-75
2022/10/18 15:00:26;;;;;;;;;;;21.70;99.90;;;;;;5037024;28;20351;-75
2022/10/18 15:02:54;;;;;;;;;;;21.70;99.90;;;;;;5036990;28;20016;-75
2022/10/18 15:05:22;;;;;;;;;;;21.70;99.90;;;;;;5037008;28;19968;-75
2022/10/18 15:07:50;;;;;;;;;;;21.70;99.90;;;;;;5036771;28;20028;-75
2022/10/18 15:10:17;;;;;;;;;;;21.70;99.90;;;;;;5036876;28;20058;-75
2022/10/18 15:12:44;;;;;;;;;;;21.70;99.90;;;;;;5036737;28;19925;-75
2022/10/18 15:15:16;;;;;;;;;;;21.70;99.90;;;;;;5036485;28;20025;-75
2022/10/18 15:17:45;;;;;;;;;;;21.70;99.90;;;;;;5036550;28;19932;-75
2022/10/18 15:20:21;;;;;;;;;;;21.70;99.90;;;;;;5036578;28;19925;-75
2022/10/18 15:22:48;;;;;;;;;;;21.70;99.90;;;;;;5036380;28;20369;-75
2022/10/18 15:25:17;;;;;;;;;;;21.70;99.90;;;;;;5036415;28;20012;-75
2022/10/18 15:27:45;;;;;;;;;;;21.70;99.90;;;;;;5036587;28;20017;-76
2022/10/18 15:30:16;;;;;;;;;;;21.70;99.90;;;;;;5036663;28;19925;-75
2022/10/18 15:32:48;;;;;;;;;;;21.70;99.90;;;;;;5036887;28;20004;-76
2022/10/18 15:35:16;;;;;;;;;;;21.70;99.90;;;;;;5036630;28;19976;-75
2022/10/18 15:37:45;;;;;;;;;;;21.70;99.90;;;;;;5036395;28;19925;-74
2022/10/18 15:40:31;;;;;;;;;;;21.70;99.90;;;;;;5036011;28;20447;-72
2022/10/18 15:42:59;;;;;;;;;;;21.70;99.90;;;;;;5035892;28;20468;-72
2022/10/18 15:45:31;;;;;;;;;;;21.80;99.90;;;;;;5036225;28;20007;-73
2022/10/18 15:47:59;;;;;;;;;;;21.80;99.90;;;;;;5069529;22;19925;-79
2022/10/18 15:50:36;;;;;;;;;;;21.80;99.90;;;;;;5045690;28;19932;-79
2022/10/18 15:53:22;;;;;;;;;;;21.80;99.90;;;;;;5044797;28;20323;-79
2022/10/18 15:55:51;;;;;;;;;;;21.80;99.90;;;;;;5044692;28;19925;-79
2022/10/18 15:58:19;;;;;;;;;;;21.80;99.90;;;;;;5047225;28;20277;-79
2022/10/18 16:00:47;;;;;;;;;;;21.80;99.90;;;;;;5047660;28;19926;-79
2022/10/18 16:03:13;;;;;;;;;;;21.80;99.90;;;;;;5047845;28;19925;-79
2022/10/18 16:05:40;;;;;;;;;;;21.80;99.90;;;;;;5045247;28;19925;-79
2022/10/18 16:08:17;;;;;;;;;;;21.80;99.90;;;;;;5040526;28;19964;-79
2022/10/18 16:10:44;;;;;;;;;;;21.80;99.90;;;;;;5041681;28;20028;-79
2022/10/18 16:13:11;;;;;;;;;;;21.80;99.90;;;;;;5037616;28;20007;-77
2022/10/18 16:15:38;;;;;;;;;;;21.80;99.90;;;;;;5036873;28;20428;-78
2022/10/18 16:18:04;;;;;;;;;;;21.80;99.90;;;;;;5038073;28;20451;-78
2022/10/18 16:20:31;;;;;;;;;;;21.80;99.90;;;;;;5039660;28;19972;-78
2022/10/18 16:22:58;;;;;;;;;;;21.80;99.90;;;;;;5038271;28;19972;-78
2022/10/18 16:25:26;;;;;;;;;;;21.80;99.90;;;;;;5035872;28;19960;-78
2022/10/18 16:27:52;;;;;;;;;;;21.80;99.90;;;;;;5035743;28;19956;-78
2022/10/18 16:30:20;;;;;;;;;;;21.80;99.90;;;;;;5037175;28;20028;-79
2022/10/18 16:32:47;;;;;;;;;;;21.80;99.90;;;;;;5037154;28;20411;-79
2022/10/18 16:35:14;;;;;;;;;;;21.90;99.90;;;;;;5037343;28;19929;-79
2022/10/18 16:37:42;;;;;;;;;;;21.80;99.90;;;;;;5041571;28;20020;-78
2022/10/18 16:40:23;;;;;;;;;;;21.90;99.90;;;;;;5039939;28;19985;-78
2022/10/18 16:42:51;;;;;;;;;;;21.80;99.90;;;;;;5042489;28;19925;-79
2022/10/18 16:48:02;;;;;;;;;;;21.80;99.90;;;;;;5047562;28;19932;-80
2022/10/18 16:50:29;;;;;;;;;;;21.90;99.90;;;;;;5051131;28;19992;-81
2022/10/18 16:52:56;;;;;;;;;;;21.90;99.90;;;;;;5046588;28;20343;-80
2022/10/18 16:55:23;;;;;;;;;;;21.90;99.90;;;;;;5051742;28;19948;-80
2022/10/18 16:57:51;;;;;;;;;;;21.90;99.90;;;;;;5049635;28;19988;-81
2022/10/18 17:00:20;;;;;;;;;;;21.90;99.90;;;;;;5051835;28;19925;-81
2022/10/18 17:02:47;;;;;;;;;;;21.90;99.90;;;;;;5050571;28;19931;-81
2022/10/18 17:05:14;;;;;;;;;;;21.90;99.90;;;;;;5048763;28;19929;-80
2022/10/18 17:07:41;;;;;;;;;;;21.90;99.90;;;;;;5047280;28;20380;-80
2022/10/18 17:10:08;;;;;;;;;;;22.00;99.90;;;;;;5047151;28;19971;-79
2022/10/18 17:12:35;;;;;;;;;;;22.00;99.90;;;;;;5046790;28;19972;-80
2022/10/18 17:15:03;;;;;;;;;;;22.00;99.90;;;;;;5045162;28;19932;-80
2022/10/18 17:17:30;;;;;;;;;;;22.00;99.90;;;;;;5045062;28;19960;-80
2022/10/18 17:19:56;;;;;;;;;;;22.00;99.90;;;;;;5041674;28;19968;-80
2022/10/18 17:22:23;;;;;;;;;;;22.00;99.90;;;;;;5045937;28;19952;-82
2022/10/18 17:24:50;;;;;;;;;;;22.00;99.90;;;;;;5046371;28;19925;-82
2022/10/18 17:27:17;;;;;;;;;;;22.00;99.90;;;;;;5046655;28;19925;-82
2022/10/18 17:29:43;;;;;;;;;;;22.00;99.90;;;;;;5044459;28;20025;-80
2022/10/18 17:32:12;;;;;;;;;;;22.00;99.90;;;;;;5041905;28;19984;-80
2022/10/18 17:34:39;;;;;;;;;;;22.00;99.90;;;;;;5039486;28;20094;-81
2022/10/18 17:37:06;;;;;;;;;;;22.00;99.90;;;;;;5040812;28;19964;-81
2022/10/18 17:39:33;;;;;;;;;;;21.90;99.90;;;;;;5040897;28;19976;-81
2022/10/18 17:41:59;;;;;;;;;;;21.90;99.90;;;;;;5041290;28;19972;-81
2022/10/18 17:44:26;;;;;;;;;;;21.90;99.90;;;;;;5043026;28;20375;-81
2022/10/18 17:46:53;;;;;;;;;;;22.00;99.90;;;;;;5042183;28;19960;-79
2022/10/18 17:49:21;;;;;;;;;;;21.90;99.90;;;;;;5040159;28;19925;-81
2022/10/18 17:51:48;;;;;;;;;;;21.90;99.90;;;;;;5041829;28;19931;-81
2022/10/18 17:54:15;;;;;;;;;;;22.00;99.90;;;;;;5042472;28;19929;-81
2022/10/18 17:56:41;;;;;;;;;;;21.90;99.90;;;;;;5041919;28;19968;-82
2022/10/18 17:59:08;;;;;;;;;;;21.90;99.90;;;;;;5043047;28;19972;-82
2022/10/18 18:01:35;;;;;;;;;;;21.90;99.90;;;;;;5038826;28;19972;-80
2022/10/18 18:04:03;;;;;;;;;;;21.90;99.90;;;;;;5038622;28;19968;-80
2022/10/18 18:06:32;;;;;;;;;;;21.90;99.90;;;;;;5039029;28;19989;-81
2022/10/18 18:09:00;;;;;;;;;;;21.90;99.90;;;;;;5038837;28;19987;-80
2022/10/18 18:11:28;;;;;;;;;;;21.90;99.90;;;;;;5038902;28;20343;-80
2022/10/18 18:13:55;;;;;;;;;;;21.90;99.90;;;;;;5038053;28;19936;-79
2022/10/18 18:16:22;;;;;;;;;;;21.90;99.90;;;;;;5038699;28;20011;-79
2022/10/18 18:18:50;;;;;;;;;;;21.90;99.90;;;;;;5044555;28;19975;-81
2022/10/18 18:21:17;;;;;;;;;;;21.90;99.90;;;;;;5039621;28;20372;-81
2022/10/18 18:23:45;;;;;;;;;;;21.90;99.90;;;;;;5039793;28;20359;-80
2022/10/18 18:26:12;;;;;;;;;;;21.90;99.90;;;;;;5043633;28;20393;-80
2022/10/18 18:28:39;;;;;;;;;;;21.90;99.90;;;;;;5043054;28;19960;-81
2022/10/18 18:31:06;;;;;;;;;;;21.90;99.90;;;;;;5042933;28;19956;-81
2022/10/18 18:33:33;;;;;;;;;;;21.90;99.90;;;;;;5042906;28;20399;-81
2022/10/18 18:35:59;;;;;;;;;;;21.90;99.90;;;;;;5043277;28;19976;-80
2022/10/18 18:38:26;;;;;;;;;;;21.90;99.90;;;;;;5041471;28;19975;-80
2022/10/18 18:41:03;;;;;;;;;;;21.90;99.90;;;;;;5042782;28;20023;-80
2022/10/18 18:43:30;;;;;;;;;;;21.90;99.90;;;;;;5042586;28;20027;-81
2022/10/18 18:45:57;;;;;;;;;;;21.90;99.90;;;;;;5042240;28;20011;-80
2022/10/18 18:48:24;;;;;;;;;;;21.90;99.90;;;;;;5041437;28;19925;-80
2022/10/18 18:50:51;;;;;;;;;;;21.90;99.90;;;;;;5040981;28;19929;-79
2022/10/18 18:53:18;;;;;;;;;;;21.90;99.90;;;;;;5041240;28;19951;-79
2022/10/18 18:55:45;;;;;;;;;;;21.90;99.90;;;;;;5044481;28;20017;-83
2022/10/18 18:58:13;;;;;;;;;;;21.90;99.90;;;;;;5043732;28;19972;-83
2022/10/18 19:00:40;;;;;;;;;;;21.90;99.90;;;;;;5043407;28;20020;-85
2022/10/18 19:03:07;;;;;;;;;;;21.90;99.90;;;;;;5044390;28;19975;-84
2022/10/18 19:05:34;;;;;;;;;;;21.90;99.90;;;;;;5044157;28;20011;-81
2022/10/18 19:08:01;;;;;;;;;;;21.90;99.90;;;;;;5042042;28;20011;-81
2022/10/18 19:10:28;;;;;;;;;;;21.90;99.90;;;;;;5041633;28;20020;-81
2022/10/18 19:12:55;;;;;;;;;;;21.90;99.90;;;;;;5042834;28;19973;-82
2022/10/18 19:15:23;;;;;;;;;;;21.80;99.90;;;;;;5046028;28;19992;-82
2022/10/18 19:17:50;;;;;;;;;;;21.90;99.90;;;;;;5046894;28;20357;-82
2022/10/18 19:20:17;;;;;;;;;;;21.90;99.90;;;;;;5054190;28;19937;-80
2022/10/18 19:22:44;;;;;;;;;;;21.90;99.90;;;;;;5054266;28;19932;-81
2022/10/18 19:25:11;;;;;;;;;;;21.80;99.90;;;;;;5054229;28;19988;-81
2022/10/18 19:27:38;;;;;;;;;;;21.90;99.90;;;;;;5054209;28;20296;-81
2022/10/18 19:30:05;;;;;;;;;;;21.80;99.90;;;;;;5053912;28;19936;-81
2022/10/18 19:32:33;;;;;;;;;;;21.90;99.90;;;;;;5056161;28;19925;-81
2022/10/18 19:35:00;;;;;;;;;;;21.90;99.90;;;;;;5058787;28;19925;-80
2022/10/18 19:37:27;;;;;;;;;;;21.80;99.90;;;;;;5059671;28;19929;-80
2022/10/18 19:39:53;;;;;;;;;;;21.90;99.90;;;;;;5057573;28;19964;-80
2022/10/18 19:42:20;;;;;;;;;;;21.90;99.90;;;;;;5059393;28;19909;-81
2022/10/18 19:44:47;;;;;;;;;;;21.80;99.90;;;;;;5057143;28;19929;-81
2022/10/18 19:47:14;;;;;;;;;;;21.80;99.90;;;;;;5052587;28;19956;-81
2022/10/18 19:49:43;;;;;;;;;;;21.80;99.90;;;;;;5050506;28;20412;-80
2022/10/18 19:52:11;;;;;;;;;;;21.80;99.90;;;;;;5049986;28;19931;-81
2022/10/18 19:54:37;;;;;;;;;;;21.80;99.90;;;;;;5050007;28;19929;-81
2022/10/18 19:57:04;;;;;;;;;;;21.80;99.90;;;;;;5050310;28;19964;-81
2022/10/18 19:59:31;;;;;;;;;;;21.80;99.90;;;;;;5051149;28;19932;-81
2022/10/18 20:01:59;;;;;;;;;;;21.80;99.90;;;;;;5050040;28;20023;-80
2022/10/18 20:04:26;;;;;;;;;;;21.80;99.90;;;;;;5046983;28;19991;-80
2022/10/18 20:06:54;;;;;;;;;;;21.80;99.90;;;;;;5041847;28;19980;-80
2022/10/18 20:09:21;;;;;;;;;;;21.80;99.90;;;;;;5042249;28;19964;-80
2022/10/18 20:11:48;;;;;;;;;;;21.80;99.90;;;;;;5039884;28;19929;-80
2022/10/18 20:14:18;;;;;;;;;;;21.80;99.90;;;;;;5038419;28;19967;-80
2022/10/18 20:16:44;;;;;;;;;;;21.80;99.90;;;;;;5039745;28;19977;-81
2022/10/18 20:19:11;;;;;;;;;;;21.80;99.90;;;;;;5037455;28;20023;-78
2022/10/18 20:21:39;;;;;;;;;;;21.80;99.90;;;;;;5037178;28;19952;-79
2022/10/18 20:24:08;;;;;;;;;;;21.80;99.90;;;;;;5037059;28;19976;-79
2022/10/18 20:26:42;;;;;;;;;;;21.80;99.90;;;;;;5037183;28;19972;-79
2022/10/18 20:29:09;;;;;;;;;;;21.80;99.90;;;;;;5037652;28;19925;-79
2022/10/18 20:31:37;;;;;;;;;;;21.80;99.90;;;;;;5036938;28;19949;-79
2022/10/18 20:34:05;;;;;;;;;;;21.80;99.90;;;;;;5036550;28;19925;-78
2022/10/18 20:36:32;;;;;;;;;;;21.80;99.90;;;;;;5036175;28;19972;-79
2022/10/18 20:38:59;;;;;;;;;;;21.80;99.90;;;;;;5035698;28;20019;-77
2022/10/18 20:41:28;;;;;;;;;;;21.70;99.90;;;;;;5037538;28;20339;-78
2022/10/18 20:43:56;;;;;;;;;;;21.80;99.90;;;;;;5038735;28;19983;-78
2022/10/18 20:46:22;;;;;;;;;;;21.80;99.90;;;;;;5038535;28;19976;-78
2022/10/18 20:48:49;;;;;;;;;;;21.80;99.90;;;;;;5037948;28;20296;-78
2022/10/18 20:51:16;;;;;;;;;;;21.80;99.90;;;;;;5038993;28;19961;-78
2022/10/18 20:53:44;;;;;;;;;;;21.80;99.90;;;;;;5036163;28;19967;-78
2022/10/18 20:56:11;;;;;;;;;;;21.80;99.90;;;;;;5034963;28;19972;-78
2022/10/18 20:58:40;;;;;;;;;;;21.80;99.90;;;;;;5034756;28;19968;-78
2022/10/18 21:01:07;;;;;;;;;;;21.80;99.90;;;;;;5035774;28;20032;-78
2022/10/18 21:03:35;;;;;;;;;;;21.80;99.90;;;;;;5036162;28;19957;-79
2022/10/18 21:06:07;;;;;;;;;;;21.80;99.90;;;;;;5034799;28;19980;-78
2022/10/18 21:08:34;;;;;;;;;;;21.80;99.90;;;;;;5034325;28;20411;-78
2022/10/18 21:11:01;;;;;;;;;;;21.80;99.90;;;;;;5034247;28;20464;-78
2022/10/18 21:13:27;;;;;;;;;;;21.80;99.90;;;;;;5034531;28;19976;-78
2022/10/18 21:15:57;;;;;;;;;;;21.80;99.90;;;;;;5034522;28;19960;-78
2022/10/18 21:18:26;;;;;;;;;;;21.70;99.90;;;;;;5034399;28;19968;-78
2022/10/18 21:20:53;;;;;;;;;;;21.80;99.90;;;;;;5034438;28;19960;-78
2022/10/18 21:23:20;;;;;;;;;;;21.80;99.90;;;;;;5034374;28;20344;-78
2022/10/18 21:25:47;;;;;;;;;;;21.80;99.90;;;;;;5034466;28;19960;-78
2022/10/18 21:28:14;;;;;;;;;;;21.80;99.90;;;;;;5034532;28;20015;-79
2022/10/18 21:30:40;;;;;;;;;;;21.80;99.90;;;;;;5034656;28;20016;-79
2022/10/18 21:33:08;;;;;;;;;;;21.80;99.90;;;;;;5034370;28;20019;-79
2022/10/18 21:35:35;;;;;;;;;;;21.70;99.90;;;;;;5034593;28;20024;-78
2022/10/18 21:38:02;;;;;;;;;;;21.70;99.90;;;;;;5034733;28;20284;-78
2022/10/18 21:40:29;;;;;;;;;;;21.80;99.90;;;;;;5034694;28;20024;-78
2022/10/18 21:42:59;;;;;;;;;;;21.80;99.90;;;;;;5034804;28;19925;-78
2022/10/18 21:45:25;;;;;;;;;;;21.80;99.90;;;;;;5035066;28;19925;-78
2022/10/18 21:47:52;;;;;;;;;;;21.80;99.90;;;;;;5035167;28;20015;-79
2022/10/18 21:50:20;;;;;;;;;;;21.80;99.90;;;;;;5035042;28;20023;-79
2022/10/18 21:52:47;;;;;;;;;;;21.70;99.90;;;;;;5034807;28;20411;-79
2022/10/18 21:55:13;;;;;;;;;;;21.70;99.90;;;;;;5034716;28;19925;-78
2022/10/18 21:57:41;;;;;;;;;;;21.80;99.90;;;;;;5034257;28;19968;-78
2022/10/18 22:00:11;;;;;;;;;;;21.70;99.90;;;;;;5036559;28;20015;-78
2022/10/18 22:02:38;;;;;;;;;;;21.70;99.90;;;;;;5037839;28;20024;-78
2022/10/18 22:05:05;;;;;;;;;;;21.80;99.90;;;;;;5037779;28;20016;-78
2022/10/18 22:07:33;;;;;;;;;;;21.80;99.90;;;;;;5037879;28;19975;-78
